Denholme, United Kingdom
Current Conditions -  °F | °C
As of 3:20 AM on Monday 22 Dec 2014 (Local Time) from EGNM Reporting Station
Broken Clouds Broken Clouds  
Wind Chill: 54°   Ceiling: 1600
Heat Index: 54°   Visibility: 6mi
Dew Point: 48°   Wind: 26mph
Humidity: 82%   Direction: 250°WSW
Pressure: 29.71"   Gusts: 40mph
Location:  53.8°N, 1.9°W
Report Text: EGNM 220320Z 25023G35KT 9999 BKN016 12/09 Q1006
Loading
Personal Weather Stations






























Interactive Weather Map New forecast layout! Learn more

10-Day Weather Forecast

Advertisements
Track Severe Weather on mobile